sensor_id;sensor_type;location;lat;lon;timestamp;temperature;humidity
19232;DHT22;9750;48.730;10.294;2023-11-21T00:06:05;8.70;99.90
19232;DHT22;9750;48.730;10.294;2023-11-21T00:08:37;8.70;99.90
19232;DHT22;9750;48.730;10.294;2023-11-21T00:11:06;8.70;99.90
19232;DHT22;9750;48.730;10.294;2023-11-21T00:13:36;8.70;99.90
19232;DHT22;9750;48.730;10.294;2023-11-21T00:16:47;8.70;99.90
19232;DHT22;9750;48.730;10.294;2023-11-21T00:30:51;8.70;99.90
19232;DHT22;9750;48.730;10.294;2023-11-21T00:42:04;8.70;99.90
19232;DHT22;9750;48.730;10.294;2023-11-21T00:45:20;8.70;99.90
19232;DHT22;9750;48.730;10.294;2023-11-21T01:08:15;8.60;99.90
19232;DHT22;9750;48.730;10.294;2023-11-21T01:10:58;8.60;99.90
19232;DHT22;9750;48.730;10.294;2023-11-21T01:13:26;8.60;99.90
19232;DHT22;9750;48.730;10.294;2023-11-21T01:19:17;8.50;99.90
19232;DHT22;9750;48.730;10.294;2023-11-21T01:21:45;8.50;99.90
19232;DHT22;9750;48.730;10.294;2023-11-21T01:24:14;8.40;99.90
19232;DHT22;9750;48.730;10.294;2023-11-21T01:26:44;8.40;99.90
19232;DHT22;9750;48.730;10.294;2023-11-21T01:29:14;8.40;99.90
19232;DHT22;9750;48.730;10.294;2023-11-21T01:31:52;8.40;99.90
19232;DHT22;9750;48.730;10.294;2023-11-21T01:34:25;8.40;99.90
19232;DHT22;9750;48.730;10.294;2023-11-21T01:37:28;8.30;99.90
19232;DHT22;9750;48.730;10.294;2023-11-21T01:40:07;8.30;99.90
19232;DHT22;9750;48.730;10.294;2023-11-21T01:42:44;8.30;99.90
19232;DHT22;9750;48.730;10.294;2023-11-21T01:45:20;8.20;99.90
19232;DHT22;9750;48.730;10.294;2023-11-21T02:23:45;8.20;99.90
19232;DHT22;9750;48.730;10.294;2023-11-21T02:26:19;8.20;99.90
19232;DHT22;9750;48.730;10.294;2023-11-21T02:28:47;8.20;99.90
19232;DHT22;9750;48.730;10.294;2023-11-21T02:31:21;8.20;99.90
19232;DHT22;9750;48.730;10.294;2023-11-21T02:33:54;8.20;99.90
19232;DHT22;9750;48.730;10.294;2023-11-21T02:36:22;8.20;99.90
19232;DHT22;9750;48.730;10.294;2023-11-21T02:38:56;8.20;99.90
19232;DHT22;9750;48.730;10.294;2023-11-21T02:41:26;8.20;99.90
19232;DHT22;9750;48.730;10.294;2023-11-21T02:43:54;8.30;99.90
19232;DHT22;9750;48.730;10.294;2023-11-21T02:46:23;8.20;99.90
19232;DHT22;9750;48.730;10.294;2023-11-21T02:48:51;8.20;99.90
19232;DHT22;9750;48.730;10.294;2023-11-21T02:51:22;8.10;99.90
19232;DHT22;9750;48.730;10.294;2023-11-21T02:53:52;8.20;99.90
19232;DHT22;9750;48.730;10.294;2023-11-21T02:56:25;8.10;99.90
19232;DHT22;9750;48.730;10.294;2023-11-21T02:58:59;8.20;99.90
19232;DHT22;9750;48.730;10.294;2023-11-21T03:01:28;8.20;99.90
19232;DHT22;9750;48.730;10.294;2023-11-21T03:03:55;8.20;99.90
19232;DHT22;9750;48.730;10.294;2023-11-21T03:06:23;8.20;99.90
19232;DHT22;9750;48.730;10.294;2023-11-21T03:08:50;8.20;99.90
19232;DHT22;9750;48.730;10.294;2023-11-21T03:11:27;8.20;99.90
19232;DHT22;9750;48.730;10.294;2023-11-21T03:13:55;8.20;99.90
19232;DHT22;9750;48.730;10.294;2023-11-21T03:16:24;8.20;99.90
19232;DHT22;9750;48.730;10.294;2023-11-21T03:18:51;8.20;99.90
19232;DHT22;9750;48.730;10.294;2023-11-21T03:21:19;8.20;99.90
19232;DHT22;9750;48.730;10.294;2023-11-21T03:23:46;8.20;99.90
19232;DHT22;9750;48.730;10.294;2023-11-21T03:26:41;8.10;99.90
19232;DHT22;9750;48.730;10.294;2023-11-21T03:29:08;8.10;99.90
19232;DHT22;9750;48.730;10.294;2023-11-21T03:31:36;8.10;99.90
19232;DHT22;9750;48.730;10.294;2023-11-21T03:34:03;8.10;99.90
19232;DHT22;9750;48.730;10.294;2023-11-21T03:36:31;8.10;99.90
19232;DHT22;9750;48.730;10.294;2023-11-21T03:38:58;8.10;99.90
19232;DHT22;9750;48.730;10.294;2023-11-21T03:41:25;8.10;99.90
19232;DHT22;9750;48.730;10.294;2023-11-21T03:44:01;8.10;99.90
19232;DHT22;9750;48.730;10.294;2023-11-21T03:46:30;8.10;99.90
19232;DHT22;9750;48.730;10.294;2023-11-21T03:49:12;8.20;99.90
19232;DHT22;9750;48.730;10.294;2023-11-21T03:51:55;8.20;99.90
19232;DHT22;9750;48.730;10.294;2023-11-21T03:54:29;8.20;99.90
19232;DHT22;9750;48.730;10.294;2023-11-21T03:57:11;8.10;99.90
19232;DHT22;9750;48.730;10.294;2023-11-21T04:00:00;8.10;99.90
19232;DHT22;9750;48.730;10.294;2023-11-21T04:02:44;8.20;99.90
19232;DHT22;9750;48.730;10.294;2023-11-21T04:05:16;8.20;99.90
19232;DHT22;9750;48.730;10.294;2023-11-21T04:07:43;8.20;99.90
19232;DHT22;9750;48.730;10.294;2023-11-21T04:10:22;8.20;99.90
19232;DHT22;9750;48.730;10.294;2023-11-21T04:12:59;8.20;99.90
19232;DHT22;9750;48.730;10.294;2023-11-21T04:18:49;8.20;99.90
19232;DHT22;9750;48.730;10.294;2023-11-21T04:22:08;8.20;99.90
19232;DHT22;9750;48.730;10.294;2023-11-21T04:24:50;8.20;99.90
19232;DHT22;9750;48.730;10.294;2023-11-21T04:27:18;8.20;99.90
19232;DHT22;9750;48.730;10.294;2023-11-21T04:29:53;8.20;99.90
19232;DHT22;9750;48.730;10.294;2023-11-21T04:32:24;8.20;99.90
19232;DHT22;9750;48.730;10.294;2023-11-21T04:34:54;8.20;99.90
19232;DHT22;9750;48.730;10.294;2023-11-21T04:37:25;8.20;99.90
19232;DHT22;9750;48.730;10.294;2023-11-21T04:39:58;8.20;99.90
19232;DHT22;9750;48.730;10.294;2023-11-21T04:42:35;8.20;99.90
19232;DHT22;9750;48.730;10.294;2023-11-21T04:45:03;8.20;99.90
19232;DHT22;9750;48.730;10.294;2023-11-21T04:48:00;8.20;99.90
19232;DHT22;9750;48.730;10.294;2023-11-21T04:50:34;8.20;99.90
19232;DHT22;9750;48.730;10.294;2023-11-21T04:53:03;8.20;99.90
19232;DHT22;9750;48.730;10.294;2023-11-21T04:55:34;8.30;99.90
19232;DHT22;9750;48.730;10.294;2023-11-21T04:58:10;8.20;99.90
19232;DHT22;9750;48.730;10.294;2023-11-21T05:00:49;8.30;99.90
19232;DHT22;9750;48.730;10.294;2023-11-21T05:03:17;8.20;99.90
19232;DHT22;9750;48.730;10.294;2023-11-21T05:06:18;8.30;99.90
19232;DHT22;9750;48.730;10.294;2023-11-21T05:11:58;8.20;99.90
19232;DHT22;9750;48.730;10.294;2023-11-21T05:14:36;8.20;99.90
19232;DHT22;9750;48.730;10.294;2023-11-21T05:17:23;8.20;99.90
19232;DHT22;9750;48.730;10.294;2023-11-21T05:20:10;8.20;99.90
19232;DHT22;9750;48.730;10.294;2023-11-21T05:25:37;8.20;99.90
19232;DHT22;9750;48.730;10.294;2023-11-21T05:28:06;8.20;99.90
19232;DHT22;9750;48.730;10.294;2023-11-21T05:30:40;8.10;99.90
19232;DHT22;9750;48.730;10.294;2023-11-21T05:33:09;8.00;99.90
19232;DHT22;9750;48.730;10.294;2023-11-21T05:35:37;8.00;99.90
19232;DHT22;9750;48.730;10.294;2023-11-21T05:38:04;8.00;99.90
19232;DHT22;9750;48.730;10.294;2023-11-21T05:40:33;8.00;99.90
19232;DHT22;9750;48.730;10.294;2023-11-21T05:43:00;8.00;99.90
19232;DHT22;9750;48.730;10.294;2023-11-21T05:45:27;8.00;99.90
19232;DHT22;9750;48.730;10.294;2023-11-21T05:47:56;8.00;99.90
19232;DHT22;9750;48.730;10.294;2023-11-21T05:50:23;8.00;99.90
19232;DHT22;9750;48.730;10.294;2023-11-21T05:52:50;8.10;99.90
19232;DHT22;9750;48.730;10.294;2023-11-21T05:55:18;8.10;99.90
19232;DHT22;9750;48.730;10.294;2023-11-21T05:57:48;8.10;99.90
19232;DHT22;9750;48.730;10.294;2023-11-21T06:00:54;8.10;99.90
19232;DHT22;9750;48.730;10.294;2023-11-21T06:03:52;8.10;99.90
19232;DHT22;9750;48.730;10.294;2023-11-21T06:06:19;8.00;99.90
19232;DHT22;9750;48.730;10.294;2023-11-21T06:08:51;8.00;99.90
19232;DHT22;9750;48.730;10.294;2023-11-21T06:11:20;8.10;99.90
19232;DHT22;9750;48.730;10.294;2023-11-21T06:13:49;8.10;99.90
19232;DHT22;9750;48.730;10.294;2023-11-21T06:16:19;8.10;99.90
19232;DHT22;9750;48.730;10.294;2023-11-21T06:18:46;8.10;99.90
19232;DHT22;9750;48.730;10.294;2023-11-21T06:21:14;8.10;99.90
19232;DHT22;9750;48.730;10.294;2023-11-21T06:23:42;8.10;99.90
19232;DHT22;9750;48.730;10.294;2023-11-21T06:26:13;8.10;99.90
19232;DHT22;9750;48.730;10.294;2023-11-21T06:28:40;8.10;99.90
19232;DHT22;9750;48.730;10.294;2023-11-21T06:31:09;8.10;99.90
19232;DHT22;9750;48.730;10.294;2023-11-21T06:33:36;8.10;99.90
19232;DHT22;9750;48.730;10.294;2023-11-21T06:36:04;8.10;99.90
19232;DHT22;9750;48.730;10.294;2023-11-21T06:38:32;8.10;99.90
19232;DHT22;9750;48.730;10.294;2023-11-21T06:40:59;8.10;99.90
19232;DHT22;9750;48.730;10.294;2023-11-21T06:43:28;8.10;99.90
19232;DHT22;9750;48.730;10.294;2023-11-21T06:45:57;8.10;99.90
19232;DHT22;9750;48.730;10.294;2023-11-21T06:48:25;8.10;99.90
19232;DHT22;9750;48.730;10.294;2023-11-21T06:50:53;8.20;99.90
19232;DHT22;9750;48.730;10.294;2023-11-21T06:53:20;8.20;99.90
19232;DHT22;9750;48.730;10.294;2023-11-21T06:55:47;8.20;99.90
19232;DHT22;9750;48.730;10.294;2023-11-21T06:58:14;8.20;99.90
19232;DHT22;9750;48.730;10.294;2023-11-21T07:00:42;8.20;99.90
19232;DHT22;9750;48.730;10.294;2023-11-21T07:03:12;8.30;99.90
19232;DHT22;9750;48.730;10.294;2023-11-21T07:05:41;8.20;99.90
19232;DHT22;9750;48.730;10.294;2023-11-21T07:08:08;8.20;99.90
19232;DHT22;9750;48.730;10.294;2023-11-21T07:10:35;8.20;99.90
19232;DHT22;9750;48.730;10.294;2023-11-21T07:13:03;8.20;99.90
19232;DHT22;9750;48.730;10.294;2023-11-21T07:15:31;8.30;99.90
19232;DHT22;9750;48.730;10.294;2023-11-21T07:17:58;8.30;99.90
19232;DHT22;9750;48.730;10.294;2023-11-21T07:20:25;8.30;99.90
19232;DHT22;9750;48.730;10.294;2023-11-21T07:22:55;8.30;99.90
19232;DHT22;9750;48.730;10.294;2023-11-21T07:25:23;8.30;99.90
19232;DHT22;9750;48.730;10.294;2023-11-21T07:27:50;8.30;99.90
19232;DHT22;9750;48.730;10.294;2023-11-21T07:30:18;8.30;99.90
19232;DHT22;9750;48.730;10.294;2023-11-21T07:32:46;8.30;99.90
19232;DHT22;9750;48.730;10.294;2023-11-21T07:35:13;8.30;99.90
19232;DHT22;9750;48.730;10.294;2023-11-21T07:37:41;8.30;99.90
19232;DHT22;9750;48.730;10.294;2023-11-21T07:40:11;8.30;99.90
19232;DHT22;9750;48.730;10.294;2023-11-21T07:42:39;8.30;99.90
19232;DHT22;9750;48.730;10.294;2023-11-21T07:45:08;8.30;99.90
19232;DHT22;9750;48.730;10.294;2023-11-21T07:47:36;8.30;99.90
19232;DHT22;9750;48.730;10.294;2023-11-21T07:50:06;8.40;99.90
19232;DHT22;9750;48.730;10.294;2023-11-21T07:52:34;8.40;99.90
19232;DHT22;9750;48.730;10.294;2023-11-21T07:55:02;8.50;99.90
19232;DHT22;9750;48.730;10.294;2023-11-21T07:57:31;8.60;99.90
19232;DHT22;9750;48.730;10.294;2023-11-21T07:59:58;8.60;99.90
19232;DHT22;9750;48.730;10.294;2023-11-21T08:02:26;8.60;99.90
19232;DHT22;9750;48.730;10.294;2023-11-21T08:04:53;8.70;99.90
19232;DHT22;9750;48.730;10.294;2023-11-21T08:07:22;8.70;99.90
19232;DHT22;9750;48.730;10.294;2023-11-21T08:09:49;8.70;99.90
19232;DHT22;9750;48.730;10.294;2023-11-21T08:12:17;8.80;99.90
19232;DHT22;9750;48.730;10.294;2023-11-21T08:14:47;8.80;99.90
19232;DHT22;9750;48.730;10.294;2023-11-21T08:17:14;8.80;99.90
19232;DHT22;9750;48.730;10.294;2023-11-21T08:19:41;8.90;99.90
19232;DHT22;9750;48.730;10.294;2023-11-21T08:22:09;8.90;99.90
19232;DHT22;9750;48.730;10.294;2023-11-21T08:24:37;8.90;99.90
19232;DHT22;9750;48.730;10.294;2023-11-21T08:27:04;9.00;99.90
19232;DHT22;9750;48.730;10.294;2023-11-21T08:29:32;9.00;99.90
19232;DHT22;9750;48.730;10.294;2023-11-21T08:32:02;9.00;99.90
19232;DHT22;9750;48.730;10.294;2023-11-21T08:34:29;9.10;99.90
19232;DHT22;9750;48.730;10.294;2023-11-21T08:36:56;9.10;99.90
19232;DHT22;9750;48.730;10.294;2023-11-21T08:39:24;9.20;99.90
19232;DHT22;9750;48.730;10.294;2023-11-21T08:41:52;9.20;99.90
19232;DHT22;9750;48.730;10.294;2023-11-21T08:44:19;9.20;99.90
19232;DHT22;9750;48.730;10.294;2023-11-21T08:46:48;9.30;99.90
19232;DHT22;9750;48.730;10.294;2023-11-21T08:49:17;9.30;99.90
19232;DHT22;9750;48.730;10.294;2023-11-21T08:51:44;9.30;99.90
19232;DHT22;9750;48.730;10.294;2023-11-21T08:54:12;9.40;99.90
19232;DHT22;9750;48.730;10.294;2023-11-21T08:56:40;9.40;99.90
19232;DHT22;9750;48.730;10.294;2023-11-21T08:59:07;9.40;99.90
19232;DHT22;9750;48.730;10.294;2023-11-21T09:01:34;9.40;99.90
19232;DHT22;9750;48.730;10.294;2023-11-21T09:04:01;9.40;99.90
19232;DHT22;9750;48.730;10.294;2023-11-21T09:06:30;9.40;99.90
19232;DHT22;9750;48.730;10.294;2023-11-21T09:08:58;9.40;99.90
19232;DHT22;9750;48.730;10.294;2023-11-21T09:11:25;9.40;99.90
19232;DHT22;9750;48.730;10.294;2023-11-21T09:13:59;9.40;99.90
19232;DHT22;9750;48.730;10.294;2023-11-21T09:16:26;9.40;99.90
19232;DHT22;9750;48.730;10.294;2023-11-21T09:18:53;9.30;99.90
19232;DHT22;9750;48.730;10.294;2023-11-21T09:21:21;9.30;99.90
19232;DHT22;9750;48.730;10.294;2023-11-21T09:23:50;9.30;99.90
19232;DHT22;9750;48.730;10.294;2023-11-21T09:26:19;9.30;99.90
19232;DHT22;9750;48.730;10.294;2023-11-21T09:28:47;9.40;99.90
19232;DHT22;9750;48.730;10.294;2023-11-21T09:31:14;9.30;99.90
19232;DHT22;9750;48.730;10.294;2023-11-21T09:33:43;9.30;99.90
19232;DHT22;9750;48.730;10.294;2023-11-21T09:36:12;9.30;99.90
19232;DHT22;9750;48.730;10.294;2023-11-21T09:38:40;9.20;99.90
19232;DHT22;9750;48.730;10.294;2023-11-21T09:41:15;9.20;99.90
19232;DHT22;9750;48.730;10.294;2023-11-21T09:43:47;9.20;99.90
19232;DHT22;9750;48.730;10.294;2023-11-21T09:46:20;9.30;99.90
19232;DHT22;9750;48.730;10.294;2023-11-21T09:48:50;9.30;99.90
19232;DHT22;9750;48.730;10.294;2023-11-21T09:51:19;9.40;99.90
19232;DHT22;9750;48.730;10.294;2023-11-21T09:53:50;9.50;99.90
19232;DHT22;9750;48.730;10.294;2023-11-21T09:59:13;9.60;99.90
19232;DHT22;9750;48.730;10.294;2023-11-21T10:01:42;9.70;99.90
19232;DHT22;9750;48.730;10.294;2023-11-21T10:04:09;9.70;99.90
19232;DHT22;9750;48.730;10.294;2023-11-21T10:06:39;9.60;99.90
19232;DHT22;9750;48.730;10.294;2023-11-21T10:09:08;9.60;99.90
19232;DHT22;9750;48.730;10.294;2023-11-21T10:11:40;9.70;99.90
19232;DHT22;9750;48.730;10.294;2023-11-21T10:14:09;9.70;99.90
19232;DHT22;9750;48.730;10.294;2023-11-21T10:16:41;9.80;99.90
19232;DHT22;9750;48.730;10.294;2023-11-21T10:19:10;9.90;99.90
19232;DHT22;9750;48.730;10.294;2023-11-21T10:21:41;10.10;99.90
19232;DHT22;9750;48.730;10.294;2023-11-21T10:24:08;10.30;99.90
19232;DHT22;9750;48.730;10.294;2023-11-21T10:26:38;10.40;99.90
19232;DHT22;9750;48.730;10.294;2023-11-21T10:29:05;10.40;99.50
19232;DHT22;9750;48.730;10.294;2023-11-21T10:31:33;10.40;99.90
19232;DHT22;9750;48.730;10.294;2023-11-21T10:34:16;10.30;99.20
19232;DHT22;9750;48.730;10.294;2023-11-21T10:36:44;10.20;99.80
19232;DHT22;9750;48.730;10.294;2023-11-21T10:39:14;10.10;99.70
19232;DHT22;9750;48.730;10.294;2023-11-21T10:41:44;10.00;99.80
19232;DHT22;9750;48.730;10.294;2023-11-21T10:44:14;9.90;99.70
19232;DHT22;9750;48.730;10.294;2023-11-21T10:46:46;9.90;99.90
19232;DHT22;9750;48.730;10.294;2023-11-21T10:49:17;9.80;99.90
19232;DHT22;9750;48.730;10.294;2023-11-21T10:51:45;9.80;99.90
19232;DHT22;9750;48.730;10.294;2023-11-21T10:54:17;9.80;99.90
19232;DHT22;9750;48.730;10.294;2023-11-21T10:56:46;9.80;99.90
19232;DHT22;9750;48.730;10.294;2023-11-21T10:59:17;9.80;99.90
19232;DHT22;9750;48.730;10.294;2023-11-21T11:01:46;9.80;99.90
19232;DHT22;9750;48.730;10.294;2023-11-21T11:04:18;9.80;99.90
19232;DHT22;9750;48.730;10.294;2023-11-21T11:06:51;9.80;99.90
19232;DHT22;9750;48.730;10.294;2023-11-21T11:09:22;9.90;99.90
19232;DHT22;9750;48.730;10.294;2023-11-21T11:11:51;9.90;99.90
19232;DHT22;9750;48.730;10.294;2023-11-21T11:14:19;10.00;99.90
19232;DHT22;9750;48.730;10.294;2023-11-21T11:16:53;10.00;99.90
19232;DHT22;9750;48.730;10.294;2023-11-21T11:19:22;10.00;99.80
19232;DHT22;9750;48.730;10.294;2023-11-21T11:21:57;10.00;99.90
19232;DHT22;9750;48.730;10.294;2023-11-21T11:24:45;9.90;99.90
19232;DHT22;9750;48.730;10.294;2023-11-21T11:27:25;9.90;99.90
19232;DHT22;9750;48.730;10.294;2023-11-21T11:30:06;9.90;99.90
19232;DHT22;9750;48.730;10.294;2023-11-21T11:32:43;9.90;99.90
19232;DHT22;9750;48.730;10.294;2023-11-21T11:35:21;10.00;99.90
19232;DHT22;9750;48.730;10.294;2023-11-21T11:37:51;10.10;99.90
19232;DHT22;9750;48.730;10.294;2023-11-21T11:40:20;10.30;99.90
19232;DHT22;9750;48.730;10.294;2023-11-21T11:42:58;10.30;99.90
19232;DHT22;9750;48.730;10.294;2023-11-21T11:45:32;10.30;99.70
19232;DHT22;9750;48.730;10.294;2023-11-21T11:48:01;10.30;98.30
19232;DHT22;9750;48.730;10.294;2023-11-21T11:50:31;10.20;99.10
19232;DHT22;9750;48.730;10.294;2023-11-21T11:53:14;10.10;99.50
19232;DHT22;9750;48.730;10.294;2023-11-21T11:55:41;10.00;98.60
19232;DHT22;9750;48.730;10.294;2023-11-21T11:58:09;9.80;99.70
19232;DHT22;9750;48.730;10.294;2023-11-21T12:00:37;9.80;99.90
19232;DHT22;9750;48.730;10.294;2023-11-21T12:03:07;9.70;99.70
19232;DHT22;9750;48.730;10.294;2023-11-21T12:05:37;9.70;99.80
19232;DHT22;9750;48.730;10.294;2023-11-21T12:08:07;9.60;99.70
19232;DHT22;9750;48.730;10.294;2023-11-21T12:10:35;9.60;99.50
19232;DHT22;9750;48.730;10.294;2023-11-21T12:13:05;9.60;99.80
19232;DHT22;9750;48.730;10.294;2023-11-21T12:15:34;9.70;99.60
19232;DHT22;9750;48.730;10.294;2023-11-21T12:18:02;9.70;99.60
19232;DHT22;9750;48.730;10.294;2023-11-21T12:20:30;9.80;99.60
19232;DHT22;9750;48.730;10.294;2023-11-21T12:22:59;9.90;99.80
19232;DHT22;9750;48.730;10.294;2023-11-21T12:25:28;10.00;99.30
19232;DHT22;9750;48.730;10.294;2023-11-21T12:27:58;10.00;99.50
19232;DHT22;9750;48.730;10.294;2023-11-21T12:30:26;10.10;99.70
19232;DHT22;9750;48.730;10.294;2023-11-21T12:32:57;10.20;99.60
19232;DHT22;9750;48.730;10.294;2023-11-21T12:35:26;10.20;98.90
19232;DHT22;9750;48.730;10.294;2023-11-21T12:37:54;10.10;99.20
19232;DHT22;9750;48.730;10.294;2023-11-21T12:40:24;10.10;99.00
19232;DHT22;9750;48.730;10.294;2023-11-21T12:42:53;10.10;99.40
19232;DHT22;9750;48.730;10.294;2023-11-21T12:45:22;10.10;99.70
19232;DHT22;9750;48.730;10.294;2023-11-21T12:47:54;10.20;99.90
19232;DHT22;9750;48.730;10.294;2023-11-21T12:50:23;10.20;99.50
19232;DHT22;9750;48.730;10.294;2023-11-21T12:52:57;10.30;99.80
19232;DHT22;9750;48.730;10.294;2023-11-21T12:55:29;10.20;99.50
19232;DHT22;9750;48.730;10.294;2023-11-21T12:57:56;10.10;99.00
19232;DHT22;9750;48.730;10.294;2023-11-21T13:00:29;9.90;99.30
19232;DHT22;9750;48.730;10.294;2023-11-21T13:02:58;9.80;99.20
19232;DHT22;9750;48.730;10.294;2023-11-21T13:05:35;9.60;99.60
19232;DHT22;9750;48.730;10.294;2023-11-21T13:08:05;9.60;99.90
19232;DHT22;9750;48.730;10.294;2023-11-21T13:10:35;9.50;99.90
19232;DHT22;9750;48.730;10.294;2023-11-21T13:13:06;9.60;99.90
19232;DHT22;9750;48.730;10.294;2023-11-21T13:15:35;9.60;99.90
19232;DHT22;9750;48.730;10.294;2023-11-21T13:18:06;9.70;99.90
19232;DHT22;9750;48.730;10.294;2023-11-21T13:20:36;9.70;99.90
19232;DHT22;9750;48.730;10.294;2023-11-21T13:23:08;9.70;99.90
19232;DHT22;9750;48.730;10.294;2023-11-21T13:25:39;9.80;99.90
19232;DHT22;9750;48.730;10.294;2023-11-21T13:28:09;9.90;99.90
19232;DHT22;9750;48.730;10.294;2023-11-21T13:30:36;10.00;99.90
19232;DHT22;9750;48.730;10.294;2023-11-21T13:33:06;10.00;99.90
19232;DHT22;9750;48.730;10.294;2023-11-21T13:35:34;10.10;99.80
19232;DHT22;9750;48.730;10.294;2023-11-21T13:38:05;10.10;99.90
19232;DHT22;9750;48.730;10.294;2023-11-21T13:40:33;10.00;99.90
19232;DHT22;9750;48.730;10.294;2023-11-21T13:43:10;10.00;99.90
19232;DHT22;9750;48.730;10.294;2023-11-21T13:45:37;9.90;99.90
19232;DHT22;9750;48.730;10.294;2023-11-21T13:48:06;9.80;99.90
19232;DHT22;9750;48.730;10.294;2023-11-21T13:50:36;9.80;99.90
19232;DHT22;9750;48.730;10.294;2023-11-21T13:53:03;9.80;99.90
19232;DHT22;9750;48.730;10.294;2023-11-21T13:55:36;9.70;99.90
19232;DHT22;9750;48.730;10.294;2023-11-21T13:58:05;9.60;99.90
19232;DHT22;9750;48.730;10.294;2023-11-21T14:00:38;9.50;99.90
19232;DHT22;9750;48.730;10.294;2023-11-21T14:06:17;9.40;99.90
19232;DHT22;9750;48.730;10.294;2023-11-21T14:08:50;9.40;99.90
19232;DHT22;9750;48.730;10.294;2023-11-21T14:11:18;9.40;99.90
19232;DHT22;9750;48.730;10.294;2023-11-21T14:13:47;9.40;99.90
19232;DHT22;9750;48.730;10.294;2023-11-21T14:16:16;9.40;99.90
19232;DHT22;9750;48.730;10.294;2023-11-21T14:18:44;9.40;99.90
19232;DHT22;9750;48.730;10.294;2023-11-21T14:21:21;9.40;99.90
19232;DHT22;9750;48.730;10.294;2023-11-21T14:23:48;9.40;99.90
19232;DHT22;9750;48.730;10.294;2023-11-21T14:26:16;9.20;99.90
19232;DHT22;9750;48.730;10.294;2023-11-21T14:28:44;9.20;99.90
19232;DHT22;9750;48.730;10.294;2023-11-21T14:31:11;9.20;99.90
19232;DHT22;9750;48.730;10.294;2023-11-21T14:33:43;9.20;99.90
19232;DHT22;9750;48.730;10.294;2023-11-21T14:36:11;9.10;99.90
19232;DHT22;9750;48.730;10.294;2023-11-21T14:38:38;9.10;99.90
19232;DHT22;9750;48.730;10.294;2023-11-21T14:41:06;9.10;99.90
19232;DHT22;9750;48.730;10.294;2023-11-21T14:43:35;9.10;99.90
19232;DHT22;9750;48.730;10.294;2023-11-21T14:46:02;9.10;99.90
19232;DHT22;9750;48.730;10.294;2023-11-21T14:48:34;9.00;99.90
19232;DHT22;9750;48.730;10.294;2023-11-21T14:51:09;9.00;99.90
19232;DHT22;9750;48.730;10.294;2023-11-21T14:53:53;9.00;99.90
19232;DHT22;9750;48.730;10.294;2023-11-21T14:56:20;9.00;99.90
19232;DHT22;9750;48.730;10.294;2023-11-21T14:58:53;9.00;99.90
19232;DHT22;9750;48.730;10.294;2023-11-21T15:01:20;9.00;99.90
19232;DHT22;9750;48.730;10.294;2023-11-21T15:03:59;9.00;99.90
19232;DHT22;9750;48.730;10.294;2023-11-21T15:06:27;9.00;99.90
19232;DHT22;9750;48.730;10.294;2023-11-21T15:08:57;9.00;99.90
19232;DHT22;9750;48.730;10.294;2023-11-21T15:11:46;9.00;99.90
19232;DHT22;9750;48.730;10.294;2023-11-21T15:14:14;9.00;99.90
19232;DHT22;9750;48.730;10.294;2023-11-21T15:16:47;9.00;99.90
19232;DHT22;9750;48.730;10.294;2023-11-21T15:19:19;9.00;99.90
19232;DHT22;9750;48.730;10.294;2023-11-21T15:21:53;9.00;99.90
19232;DHT22;9750;48.730;10.294;2023-11-21T15:24:20;9.00;99.90
19232;DHT22;9750;48.730;10.294;2023-11-21T15:26:47;9.00;99.90
19232;DHT22;9750;48.730;10.294;2023-11-21T15:29:15;8.90;99.90
19232;DHT22;9750;48.730;10.294;2023-11-21T15:31:42;8.90;99.90
19232;DHT22;9750;48.730;10.294;2023-11-21T15:34:14;8.90;99.90
19232;DHT22;9750;48.730;10.294;2023-11-21T15:36:41;8.90;99.90
19232;DHT22;9750;48.730;10.294;2023-11-21T15:39:11;8.90;99.90
19232;DHT22;9750;48.730;10.294;2023-11-21T15:41:38;8.90;99.90
19232;DHT22;9750;48.730;10.294;2023-11-21T15:44:07;8.90;99.90
19232;DHT22;9750;48.730;10.294;2023-11-21T15:46:37;9.00;99.90
19232;DHT22;9750;48.730;10.294;2023-11-21T15:49:07;9.00;99.90
19232;DHT22;9750;48.730;10.294;2023-11-21T15:51:39;9.00;99.90
19232;DHT22;9750;48.730;10.294;2023-11-21T15:54:06;9.00;99.90
19232;DHT22;9750;48.730;10.294;2023-11-21T15:56:36;8.90;99.90
19232;DHT22;9750;48.730;10.294;2023-11-21T15:59:05;8.80;99.90
19232;DHT22;9750;48.730;10.294;2023-11-21T16:01:32;8.90;99.90
19232;DHT22;9750;48.730;10.294;2023-11-21T16:04:00;8.90;99.90
19232;DHT22;9750;48.730;10.294;2023-11-21T16:06:28;8.90;99.90
19232;DHT22;9750;48.730;10.294;2023-11-21T16:08:56;8.90;99.90
19232;DHT22;9750;48.730;10.294;2023-11-21T16:11:25;8.90;99.90
19232;DHT22;9750;48.730;10.294;2023-11-21T16:13:57;8.80;99.90
19232;DHT22;9750;48.730;10.294;2023-11-21T16:16:24;8.80;99.90
19232;DHT22;9750;48.730;10.294;2023-11-21T16:18:51;8.80;99.90
19232;DHT22;9750;48.730;10.294;2023-11-21T16:21:19;8.80;99.90
19232;DHT22;9750;48.730;10.294;2023-11-21T16:23:46;8.70;99.90
19232;DHT22;9750;48.730;10.294;2023-11-21T16:26:13;8.70;99.90
19232;DHT22;9750;48.730;10.294;2023-11-21T16:28:40;8.70;99.90
19232;DHT22;9750;48.730;10.294;2023-11-21T16:31:09;8.60;99.90
19232;DHT22;9750;48.730;10.294;2023-11-21T16:33:37;8.60;99.90
19232;DHT22;9750;48.730;10.294;2023-11-21T16:36:06;8.50;99.90
19232;DHT22;9750;48.730;10.294;2023-11-21T16:38:33;8.60;99.90
19232;DHT22;9750;48.730;10.294;2023-11-21T16:41:01;8.60;99.90
19232;DHT22;9750;48.730;10.294;2023-11-21T16:43:28;8.60;99.90
19232;DHT22;9750;48.730;10.294;2023-11-21T16:45:56;8.50;99.90
19232;DHT22;9750;48.730;10.294;2023-11-21T16:48:24;8.50;99.90
19232;DHT22;9750;48.730;10.294;2023-11-21T16:50:52;8.50;99.90
19232;DHT22;9750;48.730;10.294;2023-11-21T16:53:19;8.50;99.90
19232;DHT22;9750;48.730;10.294;2023-11-21T16:55:46;8.50;99.90
19232;DHT22;9750;48.730;10.294;2023-11-21T16:58:13;8.50;99.90
19232;DHT22;9750;48.730;10.294;2023-11-21T17:00:41;8.50;99.90
19232;DHT22;9750;48.730;10.294;2023-11-21T17:03:09;8.50;99.90
19232;DHT22;9750;48.730;10.294;2023-11-21T17:05:38;8.60;99.90
19232;DHT22;9750;48.730;10.294;2023-11-21T17:08:05;8.50;99.90
19232;DHT22;9750;48.730;10.294;2023-11-21T17:10:35;8.50;99.90
19232;DHT22;9750;48.730;10.294;2023-11-21T17:13:02;8.60;99.90
19232;DHT22;9750;48.730;10.294;2023-11-21T17:15:30;8.50;99.90
19232;DHT22;9750;48.730;10.294;2023-11-21T17:17:57;8.50;99.90
19232;DHT22;9750;48.730;10.294;2023-11-21T17:20:26;8.50;99.90
19232;DHT22;9750;48.730;10.294;2023-11-21T17:22:55;8.50;99.90
19232;DHT22;9750;48.730;10.294;2023-11-21T17:25:33;8.50;99.90
19232;DHT22;9750;48.730;10.294;2023-11-21T17:28:01;8.50;99.90
19232;DHT22;9750;48.730;10.294;2023-11-21T17:30:29;8.50;99.90
19232;DHT22;9750;48.730;10.294;2023-11-21T17:32:57;8.50;99.90
19232;DHT22;9750;48.730;10.294;2023-11-21T17:35:24;8.50;99.90
19232;DHT22;9750;48.730;10.294;2023-11-21T17:37:52;8.50;99.90
19232;DHT22;9750;48.730;10.294;2023-11-21T17:40:20;8.50;99.90
19232;DHT22;9750;48.730;10.294;2023-11-21T17:42:52;8.50;99.90
19232;DHT22;9750;48.730;10.294;2023-11-21T17:45:19;8.50;99.90
19232;DHT22;9750;48.730;10.294;2023-11-21T17:47:47;8.50;99.90